sensor_id;sensor_type;location;lat;lon;timestamp;P1;durP1;ratioP1;P2;durP2;ratioP2
47365;SDS011;33105;47.964;7.982;2023-03-01T00:01:31;27.87;;;16.87;;
47365;SDS011;33105;47.964;7.982;2023-03-01T00:04:33;30.37;;;19.27;;
47365;SDS011;33105;47.964;7.982;2023-03-01T00:07:36;28.87;;;17.93;;
47365;SDS011;33105;47.964;7.982;2023-03-01T00:10:38;25.80;;;16.87;;
47365;SDS011;33105;47.964;7.982;2023-03-01T00:13:40;29.57;;;18.13;;
47365;SDS011;33105;47.964;7.982;2023-03-01T00:16:43;30.60;;;18.20;;
47365;SDS011;33105;47.964;7.982;2023-03-01T00:19:45;34.23;;;17.80;;
47365;SDS011;33105;47.964;7.982;2023-03-01T00:22:47;29.97;;;18.60;;
47365;SDS011;33105;47.964;7.982;2023-03-01T00:25:48;28.47;;;18.10;;
47365;SDS011;33105;47.964;7.982;2023-03-01T00:28:51;27.57;;;18.23;;
47365;SDS011;33105;47.964;7.982;2023-03-01T00:31:54;26.60;;;16.67;;
47365;SDS011;33105;47.964;7.982;2023-03-01T00:34:56;31.23;;;17.23;;
47365;SDS011;33105;47.964;7.982;2023-03-01T00:37:57;28.90;;;17.50;;
47365;SDS011;33105;47.964;7.982;2023-03-01T00:41:05;29.00;;;16.93;;
47365;SDS011;33105;47.964;7.982;2023-03-01T00:44:07;28.45;;;18.17;;
47365;SDS011;33105;47.964;7.982;2023-03-01T00:47:10;29.40;;;18.60;;
47365;SDS011;33105;47.964;7.982;2023-03-01T00:50:12;31.23;;;17.67;;
47365;SDS011;33105;47.964;7.982;2023-03-01T00:53:14;27.07;;;18.00;;
47365;SDS011;33105;47.964;7.982;2023-03-01T00:56:15;32.90;;;17.93;;
47365;SDS011;33105;47.964;7.982;2023-03-01T00:59:18;27.93;;;17.73;;
47365;SDS011;33105;47.964;7.982;2023-03-01T01:02:19;26.90;;;16.50;;
47365;SDS011;33105;47.964;7.982;2023-03-01T01:05:21;28.00;;;17.97;;
47365;SDS011;33105;47.964;7.982;2023-03-01T01:08:23;27.10;;;17.53;;
47365;SDS011;33105;47.964;7.982;2023-03-01T01:11:25;31.03;;;18.93;;
47365;SDS011;33105;47.964;7.982;2023-03-01T01:14:28;31.23;;;18.80;;
47365;SDS011;33105;47.964;7.982;2023-03-01T01:17:29;30.27;;;18.23;;
47365;SDS011;33105;47.964;7.982;2023-03-01T01:20:31;29.37;;;18.37;;
47365;SDS011;33105;47.964;7.982;2023-03-01T01:23:34;32.27;;;18.57;;
47365;SDS011;33105;47.964;7.982;2023-03-01T01:26:35;30.80;;;16.93;;
47365;SDS011;33105;47.964;7.982;2023-03-01T01:29:37;26.80;;;17.17;;
47365;SDS011;33105;47.964;7.982;2023-03-01T01:32:38;27.47;;;16.57;;
47365;SDS011;33105;47.964;7.982;2023-03-01T01:35:40;28.47;;;17.87;;
47365;SDS011;33105;47.964;7.982;2023-03-01T01:38:42;29.67;;;17.53;;
47365;SDS011;33105;47.964;7.982;2023-03-01T01:41:44;33.73;;;18.37;;
47365;SDS011;33105;47.964;7.982;2023-03-01T01:44:46;26.43;;;17.33;;
47365;SDS011;33105;47.964;7.982;2023-03-01T01:47:48;28.00;;;17.30;;
47365;SDS011;33105;47.964;7.982;2023-03-01T01:50:59;29.20;;;17.73;;
47365;SDS011;33105;47.964;7.982;2023-03-01T01:54:02;28.27;;;17.60;;
47365;SDS011;33105;47.964;7.982;2023-03-01T01:57:06;28.37;;;17.27;;
47365;SDS011;33105;47.964;7.982;2023-03-01T02:00:12;29.97;;;17.00;;
47365;SDS011;33105;47.964;7.982;2023-03-01T02:03:26;29.20;;;17.23;;
47365;SDS011;33105;47.964;7.982;2023-03-01T02:06:37;29.33;;;18.40;;
47365;SDS011;33105;47.964;7.982;2023-03-01T02:09:48;29.20;;;17.97;;
47365;SDS011;33105;47.964;7.982;2023-03-01T02:12:54;27.93;;;17.47;;
47365;SDS011;33105;47.964;7.982;2023-03-01T02:15:57;27.47;;;16.07;;
47365;SDS011;33105;47.964;7.982;2023-03-01T02:18:59;30.07;;;18.63;;
47365;SDS011;33105;47.964;7.982;2023-03-01T02:22:04;33.37;;;18.20;;
47365;SDS011;33105;47.964;7.982;2023-03-01T02:28:40;29.20;;;17.73;;
47365;SDS011;33105;47.964;7.982;2023-03-01T02:31:41;28.30;;;17.73;;
47365;SDS011;33105;47.964;7.982;2023-03-01T02:34:43;29.10;;;17.10;;
47365;SDS011;33105;47.964;7.982;2023-03-01T02:37:45;33.60;;;17.83;;
47365;SDS011;33105;47.964;7.982;2023-03-01T02:40:49;30.07;;;17.80;;
47365;SDS011;33105;47.964;7.982;2023-03-01T02:43:52;28.27;;;18.27;;
47365;SDS011;33105;47.964;7.982;2023-03-01T02:46:55;30.17;;;18.53;;
47365;SDS011;33105;47.964;7.982;2023-03-01T02:49:58;30.83;;;17.63;;
47365;SDS011;33105;47.964;7.982;2023-03-01T02:56:22;27.67;;;17.67;;
47365;SDS011;33105;47.964;7.982;2023-03-01T02:59:29;34.13;;;19.70;;
47365;SDS011;33105;47.964;7.982;2023-03-01T03:02:41;30.63;;;18.60;;
47365;SDS011;33105;47.964;7.982;2023-03-01T03:05:51;33.07;;;19.57;;
47365;SDS011;33105;47.964;7.982;2023-03-01T03:08:53;30.80;;;19.60;;
47365;SDS011;33105;47.964;7.982;2023-03-01T03:11:55;33.37;;;20.70;;
47365;SDS011;33105;47.964;7.982;2023-03-01T03:14:59;34.80;;;20.73;;
47365;SDS011;33105;47.964;7.982;2023-03-01T03:18:02;30.80;;;20.10;;
47365;SDS011;33105;47.964;7.982;2023-03-01T03:21:08;33.13;;;20.67;;
47365;SDS011;33105;47.964;7.982;2023-03-01T03:24:13;34.30;;;21.27;;
47365;SDS011;33105;47.964;7.982;2023-03-01T03:27:14;36.50;;;20.20;;
47365;SDS011;33105;47.964;7.982;2023-03-01T03:30:18;34.47;;;21.77;;
47365;SDS011;33105;47.964;7.982;2023-03-01T03:33:20;35.63;;;20.57;;
47365;SDS011;33105;47.964;7.982;2023-03-01T03:36:23;33.00;;;20.47;;
47365;SDS011;33105;47.964;7.982;2023-03-01T03:39:28;30.80;;;19.17;;
47365;SDS011;33105;47.964;7.982;2023-03-01T03:42:30;34.23;;;21.33;;
47365;SDS011;33105;47.964;7.982;2023-03-01T03:45:32;36.10;;;20.93;;
47365;SDS011;33105;47.964;7.982;2023-03-01T03:48:36;32.20;;;20.37;;
47365;SDS011;33105;47.964;7.982;2023-03-01T03:51:40;34.97;;;20.20;;
47365;SDS011;33105;47.964;7.982;2023-03-01T03:54:41;33.43;;;20.27;;
47365;SDS011;33105;47.964;7.982;2023-03-01T03:57:43;34.17;;;19.63;;
47365;SDS011;33105;47.964;7.982;2023-03-01T04:00:44;33.60;;;19.57;;
47365;SDS011;33105;47.964;7.982;2023-03-01T04:03:46;31.43;;;18.47;;
47365;SDS011;33105;47.964;7.982;2023-03-01T04:06:48;550.07;;;108.23;;
47365;SDS011;33105;47.964;7.982;2023-03-01T04:09:50;542.70;;;107.30;;
47365;SDS011;33105;47.964;7.982;2023-03-01T04:12:52;545.70;;;103.63;;
47365;SDS011;33105;47.964;7.982;2023-03-01T04:15:55;560.03;;;108.30;;
47365;SDS011;33105;47.964;7.982;2023-03-01T04:18:57;539.10;;;102.30;;
47365;SDS011;33105;47.964;7.982;2023-03-01T04:22:01;538.83;;;107.27;;
47365;SDS011;33105;47.964;7.982;2023-03-01T04:25:08;540.80;;;107.10;;
47365;SDS011;33105;47.964;7.982;2023-03-01T04:28:10;506.00;;;103.70;;
47365;SDS011;33105;47.964;7.982;2023-03-01T04:31:14;467.73;;;103.13;;
47365;SDS011;33105;47.964;7.982;2023-03-01T04:34:20;319.43;;;71.43;;
47365;SDS011;33105;47.964;7.982;2023-03-01T04:37:21;218.17;;;48.67;;
47365;SDS011;33105;47.964;7.982;2023-03-01T04:40:24;8.73;;;3.97;;
47365;SDS011;33105;47.964;7.982;2023-03-01T04:43:26;9.03;;;4.67;;
47365;SDS011;33105;47.964;7.982;2023-03-01T04:46:27;6.23;;;4.00;;
47365;SDS011;33105;47.964;7.982;2023-03-01T04:49:29;6.83;;;3.83;;
47365;SDS011;33105;47.964;7.982;2023-03-01T04:52:31;6.97;;;4.17;;
47365;SDS011;33105;47.964;7.982;2023-03-01T04:55:33;7.40;;;4.03;;
47365;SDS011;33105;47.964;7.982;2023-03-01T04:58:35;7.00;;;3.87;;
47365;SDS011;33105;47.964;7.982;2023-03-01T05:01:38;7.00;;;3.87;;
47365;SDS011;33105;47.964;7.982;2023-03-01T05:04:41;6.27;;;3.37;;
47365;SDS011;33105;47.964;7.982;2023-03-01T05:07:42;6.33;;;3.30;;
47365;SDS011;33105;47.964;7.982;2023-03-01T05:10:45;6.37;;;3.33;;
47365;SDS011;33105;47.964;7.982;2023-03-01T05:13:52;6.87;;;3.73;;
47365;SDS011;33105;47.964;7.982;2023-03-01T05:16:56;8.80;;;4.40;;
47365;SDS011;33105;47.964;7.982;2023-03-01T05:20:05;7.67;;;4.40;;
47365;SDS011;33105;47.964;7.982;2023-03-01T05:23:10;6.93;;;4.33;;
47365;SDS011;33105;47.964;7.982;2023-03-01T05:26:11;7.47;;;4.67;;
47365;SDS011;33105;47.964;7.982;2023-03-01T05:29:13;6.33;;;3.50;;
47365;SDS011;33105;47.964;7.982;2023-03-01T05:32:15;6.50;;;3.23;;
47365;SDS011;33105;47.964;7.982;2023-03-01T05:35:17;6.67;;;3.80;;
47365;SDS011;33105;47.964;7.982;2023-03-01T05:38:20;6.43;;;3.23;;
47365;SDS011;33105;47.964;7.982;2023-03-01T05:41:22;7.50;;;5.67;;
47365;SDS011;33105;47.964;7.982;2023-03-01T05:44:23;5.83;;;3.03;;
47365;SDS011;33105;47.964;7.982;2023-03-01T05:47:26;6.03;;;3.30;;
47365;SDS011;33105;47.964;7.982;2023-03-01T05:50:32;5.97;;;3.27;;
47365;SDS011;33105;47.964;7.982;2023-03-01T05:53:36;6.23;;;3.37;;
47365;SDS011;33105;47.964;7.982;2023-03-01T05:56:38;6.07;;;3.33;;
47365;SDS011;33105;47.964;7.982;2023-03-01T05:59:40;5.90;;;3.00;;
47365;SDS011;33105;47.964;7.982;2023-03-01T06:02:41;6.07;;;3.23;;
47365;SDS011;33105;47.964;7.982;2023-03-01T06:05:43;7.33;;;3.73;;
47365;SDS011;33105;47.964;7.982;2023-03-01T06:08:45;6.13;;;3.30;;
47365;SDS011;33105;47.964;7.982;2023-03-01T06:11:46;5.53;;;2.77;;
47365;SDS011;33105;47.964;7.982;2023-03-01T06:14:48;5.63;;;2.73;;
47365;SDS011;33105;47.964;7.982;2023-03-01T06:17:50;6.00;;;3.23;;
47365;SDS011;33105;47.964;7.982;2023-03-01T06:20:53;6.07;;;3.43;;
47365;SDS011;33105;47.964;7.982;2023-03-01T06:23:55;8.43;;;3.50;;
47365;SDS011;33105;47.964;7.982;2023-03-01T06:26:57;385.80;;;90.40;;
47365;SDS011;33105;47.964;7.982;2023-03-01T06:29:58;7.17;;;4.57;;
47365;SDS011;33105;47.964;7.982;2023-03-01T06:33:02;6.10;;;3.37;;
47365;SDS011;33105;47.964;7.982;2023-03-01T06:36:04;6.07;;;3.07;;
47365;SDS011;33105;47.964;7.982;2023-03-01T06:39:06;6.07;;;3.20;;
47365;SDS011;33105;47.964;7.982;2023-03-01T06:42:08;5.83;;;2.97;;
47365;SDS011;33105;47.964;7.982;2023-03-01T06:45:11;5.53;;;2.67;;
47365;SDS011;33105;47.964;7.982;2023-03-01T06:48:12;5.90;;;3.07;;
47365;SDS011;33105;47.964;7.982;2023-03-01T06:51:14;10.37;;;5.27;;
47365;SDS011;33105;47.964;7.982;2023-03-01T06:54:16;5.43;;;2.57;;
47365;SDS011;33105;47.964;7.982;2023-03-01T06:57:18;5.73;;;3.00;;
47365;SDS011;33105;47.964;7.982;2023-03-01T07:00:21;5.43;;;2.70;;
47365;SDS011;33105;47.964;7.982;2023-03-01T07:03:24;5.87;;;3.13;;
47365;SDS011;33105;47.964;7.982;2023-03-01T07:06:26;6.07;;;3.33;;
47365;SDS011;33105;47.964;7.982;2023-03-01T07:09:28;5.87;;;3.30;;
47365;SDS011;33105;47.964;7.982;2023-03-01T07:12:30;6.07;;;3.27;;
47365;SDS011;33105;47.964;7.982;2023-03-01T07:15:31;5.83;;;3.00;;
47365;SDS011;33105;47.964;7.982;2023-03-01T07:18:34;6.90;;;4.43;;
47365;SDS011;33105;47.964;7.982;2023-03-01T07:21:36;5.93;;;3.20;;
47365;SDS011;33105;47.964;7.982;2023-03-01T07:24:40;5.67;;;3.00;;
47365;SDS011;33105;47.964;7.982;2023-03-01T07:27:42;5.50;;;2.80;;
47365;SDS011;33105;47.964;7.982;2023-03-01T07:30:44;5.33;;;2.60;;
47365;SDS011;33105;47.964;7.982;2023-03-01T07:33:46;5.47;;;2.70;;
47365;SDS011;33105;47.964;7.982;2023-03-01T07:36:48;5.67;;;2.87;;
47365;SDS011;33105;47.964;7.982;2023-03-01T07:39:50;7.60;;;4.13;;
47365;SDS011;33105;47.964;7.982;2023-03-01T07:42:58;6.23;;;3.23;;
47365;SDS011;33105;47.964;7.982;2023-03-01T07:46:00;6.07;;;3.37;;
47365;SDS011;33105;47.964;7.982;2023-03-01T07:49:03;6.07;;;3.40;;
47365;SDS011;33105;47.964;7.982;2023-03-01T07:52:06;5.83;;;3.10;;
47365;SDS011;33105;47.964;7.982;2023-03-01T07:55:09;5.83;;;3.10;;
47365;SDS011;33105;47.964;7.982;2023-03-01T07:58:11;5.37;;;2.67;;
47365;SDS011;33105;47.964;7.982;2023-03-01T08:01:15;6.27;;;3.17;;
47365;SDS011;33105;47.964;7.982;2023-03-01T08:04:19;5.83;;;3.27;;
47365;SDS011;33105;47.964;7.982;2023-03-01T08:07:20;5.40;;;2.73;;
47365;SDS011;33105;47.964;7.982;2023-03-01T08:10:21;4.40;;;2.50;;
47365;SDS011;33105;47.964;7.982;2023-03-01T08:13:23;5.07;;;3.00;;
47365;SDS011;33105;47.964;7.982;2023-03-01T08:16:25;4.90;;;2.90;;
47365;SDS011;33105;47.964;7.982;2023-03-01T08:19:27;4.97;;;2.97;;
47365;SDS011;33105;47.964;7.982;2023-03-01T08:22:29;4.83;;;2.83;;
47365;SDS011;33105;47.964;7.982;2023-03-01T08:25:31;4.97;;;3.07;;
47365;SDS011;33105;47.964;7.982;2023-03-01T08:28:32;9.63;;;4.77;;
47365;SDS011;33105;47.964;7.982;2023-03-01T08:31:35;5.13;;;3.30;;
47365;SDS011;33105;47.964;7.982;2023-03-01T08:34:38;4.77;;;2.87;;
47365;SDS011;33105;47.964;7.982;2023-03-01T08:37:41;4.53;;;2.80;;
47365;SDS011;33105;47.964;7.982;2023-03-01T08:40:49;4.43;;;2.60;;
47365;SDS011;33105;47.964;7.982;2023-03-01T08:44:21;6.00;;;3.57;;
47365;SDS011;33105;47.964;7.982;2023-03-01T08:52:31;4.33;;;2.50;;
47365;SDS011;33105;47.964;7.982;2023-03-01T08:55:34;6.00;;;3.22;;
47365;SDS011;33105;47.964;7.982;2023-03-01T08:58:37;5.77;;;3.90;;
47365;SDS011;33105;47.964;7.982;2023-03-01T09:01:41;4.77;;;3.10;;
47365;SDS011;33105;47.964;7.982;2023-03-01T09:04:45;4.20;;;2.30;;
47365;SDS011;33105;47.964;7.982;2023-03-01T09:07:47;4.43;;;2.60;;
47365;SDS011;33105;47.964;7.982;2023-03-01T09:10:48;4.67;;;2.80;;
47365;SDS011;33105;47.964;7.982;2023-03-01T09:13:52;5.03;;;3.13;;
47365;SDS011;33105;47.964;7.982;2023-03-01T09:21:45;4.37;;;2.53;;
47365;SDS011;33105;47.964;7.982;2023-03-01T09:45:56;4.50;;;2.67;;
47365;SDS011;33105;47.964;7.982;2023-03-01T09:49:14;7.07;;;5.18;;
47365;SDS011;33105;47.964;7.982;2023-03-01T09:52:41;4.70;;;2.83;;
47365;SDS011;33105;47.964;7.982;2023-03-01T09:56:05;5.93;;;3.10;;
47365;SDS011;33105;47.964;7.982;2023-03-01T09:59:24;5.53;;;2.90;;
47365;SDS011;33105;47.964;7.982;2023-03-01T10:02:43;6.72;;;4.13;;
47365;SDS011;33105;47.964;7.982;2023-03-01T10:09:13;4.43;;;2.67;;
47365;SDS011;33105;47.964;7.982;2023-03-01T10:12:20;4.40;;;2.53;;
47365;SDS011;33105;47.964;7.982;2023-03-01T10:15:34;4.93;;;3.13;;
47365;SDS011;33105;47.964;7.982;2023-03-01T10:18:53;4.57;;;2.90;;
47365;SDS011;33105;47.964;7.982;2023-03-01T10:22:04;5.07;;;3.47;;
47365;SDS011;33105;47.964;7.982;2023-03-01T10:25:14;4.30;;;2.57;;
47365;SDS011;33105;47.964;7.982;2023-03-01T10:31:42;4.37;;;2.57;;
47365;SDS011;33105;47.964;7.982;2023-03-01T10:34:47;4.33;;;2.60;;
47365;SDS011;33105;47.964;7.982;2023-03-01T10:41:05;4.70;;;2.93;;
47365;SDS011;33105;47.964;7.982;2023-03-01T10:44:08;5.00;;;3.17;;
47365;SDS011;33105;47.964;7.982;2023-03-01T10:47:32;4.63;;;2.83;;
47365;SDS011;33105;47.964;7.982;2023-03-01T10:50:34;4.53;;;2.70;;
47365;SDS011;33105;47.964;7.982;2023-03-01T10:53:42;4.47;;;2.63;;
47365;SDS011;33105;47.964;7.982;2023-03-01T10:56:50;4.07;;;2.27;;
47365;SDS011;33105;47.964;7.982;2023-03-01T11:00:01;3.73;;;2.80;;
47365;SDS011;33105;47.964;7.982;2023-03-01T11:03:22;3.37;;;2.40;;
47365;SDS011;33105;47.964;7.982;2023-03-01T11:06:30;5.78;;;3.03;;
47365;SDS011;33105;47.964;7.982;2023-03-01T11:09:33;3.60;;;2.47;;
47365;SDS011;33105;47.964;7.982;2023-03-01T11:12:43;3.30;;;2.23;;
47365;SDS011;33105;47.964;7.982;2023-03-01T11:15:59;3.50;;;2.47;;
47365;SDS011;33105;47.964;7.982;2023-03-01T11:22:19;18.53;;;8.23;;
47365;SDS011;33105;47.964;7.982;2023-03-01T11:25:25;21.40;;;14.43;;
47365;SDS011;33105;47.964;7.982;2023-03-01T11:28:32;23.92;;;14.63;;
47365;SDS011;33105;47.964;7.982;2023-03-01T11:31:38;22.58;;;15.35;;
47365;SDS011;33105;47.964;7.982;2023-03-01T11:34:50;28.92;;;16.85;;
47365;SDS011;33105;47.964;7.982;2023-03-01T11:38:04;27.38;;;15.73;;
47365;SDS011;33105;47.964;7.982;2023-03-01T11:44:21;23.30;;;14.85;;
47365;SDS011;33105;47.964;7.982;2023-03-01T11:47:33;26.27;;;15.77;;
47365;SDS011;33105;47.964;7.982;2023-03-01T11:50:51;24.90;;;14.48;;
47365;SDS011;33105;47.964;7.982;2023-03-01T12:04:18;26.17;;;15.15;;
47365;SDS011;33105;47.964;7.982;2023-03-01T12:07:52;23.10;;;14.65;;
47365;SDS011;33105;47.964;7.982;2023-03-01T12:11:09;20.70;;;14.55;;
47365;SDS011;33105;47.964;7.982;2023-03-01T12:30:47;20.38;;;13.95;;
47365;SDS011;33105;47.964;7.982;2023-03-01T12:47:41;23.27;;;15.90;;
47365;SDS011;33105;47.964;7.982;2023-03-01T12:51:06;23.23;;;15.23;;
47365;SDS011;33105;47.964;7.982;2023-03-01T12:54:16;24.90;;;15.98;;
47365;SDS011;33105;47.964;7.982;2023-03-01T12:57:37;36.53;;;17.58;;
47365;SDS011;33105;47.964;7.982;2023-03-01T13:01:31;21.85;;;15.02;;
47365;SDS011;33105;47.964;7.982;2023-03-01T13:07:56;25.58;;;15.98;;
47365;SDS011;33105;47.964;7.982;2023-03-01T13:11:11;29.08;;;18.05;;
47365;SDS011;33105;47.964;7.982;2023-03-01T13:17:31;28.95;;;18.25;;
47365;SDS011;33105;47.964;7.982;2023-03-01T13:23:47;32.22;;;20.30;;
47365;SDS011;33105;47.964;7.982;2023-03-01T13:27:09;25.73;;;17.52;;
47365;SDS011;33105;47.964;7.982;2023-03-01T13:33:43;106.55;;;49.30;;
47365;SDS011;33105;47.964;7.982;2023-03-01T13:36:47;164.32;;;70.95;;
47365;SDS011;33105;47.964;7.982;2023-03-01T13:39:49;28.00;;;17.25;;
47365;SDS011;33105;47.964;7.982;2023-03-01T13:42:55;25.52;;;16.80;;
47365;SDS011;33105;47.964;7.982;2023-03-01T13:45:58;25.77;;;16.60;;
47365;SDS011;33105;47.964;7.982;2023-03-01T13:49:01;25.83;;;17.15;;
47365;SDS011;33105;47.964;7.982;2023-03-01T13:52:04;23.95;;;16.23;;
47365;SDS011;33105;47.964;7.982;2023-03-01T13:58:26;25.35;;;16.63;;
47365;SDS011;33105;47.964;7.982;2023-03-01T14:01:35;23.67;;;16.85;;
47365;SDS011;33105;47.964;7.982;2023-03-01T14:04:37;25.48;;;16.48;;
47365;SDS011;33105;47.964;7.982;2023-03-01T14:07:40;22.25;;;15.82;;
47365;SDS011;33105;47.964;7.982;2023-03-01T14:20:38;26.00;;;17.70;;
47365;SDS011;33105;47.964;7.982;2023-03-01T14:23:42;25.52;;;16.27;;
47365;SDS011;33105;47.964;7.982;2023-03-01T14:26:44;27.40;;;17.50;;
47365;SDS011;33105;47.964;7.982;2023-03-01T14:33:22;25.42;;;16.20;;
47365;SDS011;33105;47.964;7.982;2023-03-01T14:36:31;23.10;;;16.02;;
47365;SDS011;33105;47.964;7.982;2023-03-01T14:39:35;27.30;;;15.80;;
47365;SDS011;33105;47.964;7.982;2023-03-01T14:42:37;27.67;;;16.38;;
47365;SDS011;33105;47.964;7.982;2023-03-01T14:45:39;30.67;;;17.42;;
47365;SDS011;33105;47.964;7.982;2023-03-01T14:48:49;24.73;;;16.37;;
47365;SDS011;33105;47.964;7.982;2023-03-01T14:52:02;22.98;;;14.82;;
47365;SDS011;33105;47.964;7.982;2023-03-01T14:55:18;26.98;;;16.02;;
47365;SDS011;33105;47.964;7.982;2023-03-01T14:58:23;22.27;;;14.70;;
47365;SDS011;33105;47.964;7.982;2023-03-01T15:01:26;23.20;;;15.75;;
47365;SDS011;33105;47.964;7.982;2023-03-01T15:04:28;21.90;;;15.30;;
47365;SDS011;33105;47.964;7.982;2023-03-01T15:07:33;22.70;;;15.05;;
47365;SDS011;33105;47.964;7.982;2023-03-01T15:10:36;22.60;;;16.08;;
47365;SDS011;33105;47.964;7.982;2023-03-01T15:13:38;25.08;;;16.25;;
47365;SDS011;33105;47.964;7.982;2023-03-01T15:16:41;27.25;;;16.50;;
47365;SDS011;33105;47.964;7.982;2023-03-01T15:19:46;23.45;;;15.55;;
47365;SDS011;33105;47.964;7.982;2023-03-01T15:22:49;24.42;;;16.08;;
47365;SDS011;33105;47.964;7.982;2023-03-01T15:25:52;28.02;;;16.52;;
47365;SDS011;33105;47.964;7.982;2023-03-01T15:28:58;24.90;;;16.25;;
47365;SDS011;33105;47.964;7.982;2023-03-01T15:32:01;24.20;;;15.57;;
47365;SDS011;33105;47.964;7.982;2023-03-01T15:38:53;23.23;;;14.75;;
47365;SDS011;33105;47.964;7.982;2023-03-01T15:41:57;22.35;;;15.95;;
47365;SDS011;33105;47.964;7.982;2023-03-01T15:48:17;26.67;;;15.45;;
47365;SDS011;33105;47.964;7.982;2023-03-01T15:51:22;29.05;;;16.20;;
47365;SDS011;33105;47.964;7.982;2023-03-01T15:54:32;24.02;;;15.82;;
47365;SDS011;33105;47.964;7.982;2023-03-01T15:57:33;22.75;;;15.13;;
47365;SDS011;33105;47.964;7.982;2023-03-01T16:00:35;26.77;;;16.33;;
47365;SDS011;33105;47.964;7.982;2023-03-01T16:03:37;24.48;;;15.27;;
47365;SDS011;33105;47.964;7.982;2023-03-01T16:06:39;23.58;;;15.45;;
47365;SDS011;33105;47.964;7.982;2023-03-01T16:09:41;30.35;;;17.63;;
47365;SDS011;33105;47.964;7.982;2023-03-01T16:12:45;26.85;;;17.42;;
47365;SDS011;33105;47.964;7.982;2023-03-01T16:15:48;25.02;;;16.15;;
47365;SDS011;33105;47.964;7.982;2023-03-01T16:18:51;24.40;;;16.60;;
47365;SDS011;33105;47.964;7.982;2023-03-01T16:21:53;25.15;;;16.58;;
47365;SDS011;33105;47.964;7.982;2023-03-01T16:24:55;30.85;;;21.40;;
47365;SDS011;33105;47.964;7.982;2023-03-01T16:27:56;27.52;;;18.45;;
47365;SDS011;33105;47.964;7.982;2023-03-01T16:30:59;28.25;;;17.40;;
47365;SDS011;33105;47.964;7.982;2023-03-01T16:34:02;30.55;;;19.30;;
47365;SDS011;33105;47.964;7.982;2023-03-01T16:37:04;32.20;;;21.60;;
47365;SDS011;33105;47.964;7.982;2023-03-01T16:40:06;31.25;;;20.77;;
47365;SDS011;33105;47.964;7.982;2023-03-01T16:43:16;38.58;;;22.42;;
47365;SDS011;33105;47.964;7.982;2023-03-01T16:46:20;33.50;;;20.10;;
47365;SDS011;33105;47.964;7.982;2023-03-01T16:49:24;33.70;;;21.45;;
47365;SDS011;33105;47.964;7.982;2023-03-01T16:52:25;34.25;;;20.70;;
47365;SDS011;33105;47.964;7.982;2023-03-01T16:55:27;29.17;;;20.30;;
47365;SDS011;33105;47.964;7.982;2023-03-01T16:58:30;28.77;;;20.73;;
47365;SDS011;33105;47.964;7.982;2023-03-01T17:01:31;38.05;;;22.58;;
47365;SDS011;33105;47.964;7.982;2023-03-01T17:04:42;33.17;;;21.58;;
47365;SDS011;33105;47.964;7.982;2023-03-01T17:07:45;35.85;;;21.48;;
47365;SDS011;33105;47.964;7.982;2023-03-01T17:10:46;33.30;;;21.48;;
47365;SDS011;33105;47.964;7.982;2023-03-01T17:13:48;33.03;;;20.42;;
47365;SDS011;33105;47.964;7.982;2023-03-01T17:16:49;30.55;;;20.42;;
47365;SDS011;33105;47.964;7.982;2023-03-01T17:19:52;35.83;;;21.02;;
47365;SDS011;33105;47.964;7.982;2023-03-01T17:22:55;32.33;;;21.38;;
47365;SDS011;33105;47.964;7.982;2023-03-01T17:25:57;28.98;;;19.92;;
47365;SDS011;33105;47.964;7.982;2023-03-01T17:28:59;29.65;;;19.13;;
47365;SDS011;33105;47.964;7.982;2023-03-01T17:32:01;31.35;;;19.08;;
47365;SDS011;33105;47.964;7.982;2023-03-01T17:35:04;31.65;;;19.40;;
47365;SDS011;33105;47.964;7.982;2023-03-01T17:38:09;30.00;;;18.15;;
47365;SDS011;33105;47.964;7.982;2023-03-01T17:41:11;33.40;;;20.70;;
47365;SDS011;33105;47.964;7.982;2023-03-01T17:44:13;32.65;;;19.35;;
47365;SDS011;33105;47.964;7.982;2023-03-01T17:47:15;32.30;;;21.05;;
47365;SDS011;33105;47.964;7.982;2023-03-01T17:50:17;29.38;;;18.83;;
47365;SDS011;33105;47.964;7.982;2023-03-01T17:53:19;30.52;;;19.23;;
47365;SDS011;33105;47.964;7.982;2023-03-01T17:56:20;30.42;;;19.55;;
47365;SDS011;33105;47.964;7.982;2023-03-01T17:59:22;35.67;;;21.33;;
47365;SDS011;33105;47.964;7.982;2023-03-01T18:02:24;31.85;;;19.75;;
47365;SDS011;33105;47.964;7.982;2023-03-01T18:05:30;27.50;;;17.38;;
47365;SDS011;33105;47.964;7.982;2023-03-01T18:08:35;27.67;;;17.58;;
47365;SDS011;33105;47.964;7.982;2023-03-01T18:11:38;28.20;;;16.98;;
47365;SDS011;33105;47.964;7.982;2023-03-01T18:14:42;27.08;;;17.70;;
47365;SDS011;33105;47.964;7.982;2023-03-01T18:17:43;27.92;;;17.63;;
47365;SDS011;33105;47.964;7.982;2023-03-01T18:20:44;29.20;;;18.88;;
47365;SDS011;33105;47.964;7.982;2023-03-01T18:23:55;27.85;;;18.20;;
47365;SDS011;33105;47.964;7.982;2023-03-01T18:26:59;28.35;;;18.02;;
47365;SDS011;33105;47.964;7.982;2023-03-01T18:30:06;31.88;;;18.85;;
47365;SDS011;33105;47.964;7.982;2023-03-01T18:33:09;29.15;;;18.45;;
47365;SDS011;33105;47.964;7.982;2023-03-01T18:36:22;28.52;;;18.88;;
47365;SDS011;33105;47.964;7.982;2023-03-01T18:39:28;30.48;;;20.33;;
47365;SDS011;33105;47.964;7.982;2023-03-01T18:42:30;37.20;;;22.23;;
47365;SDS011;33105;47.964;7.982;2023-03-01T18:45:32;32.33;;;20.13;;
47365;SDS011;33105;47.964;7.982;2023-03-01T18:48:34;29.17;;;18.58;;
47365;SDS011;33105;47.964;7.982;2023-03-01T18:51:38;31.20;;;19.25;;
47365;SDS011;33105;47.964;7.982;2023-03-01T18:54:41;29.77;;;19.42;;
47365;SDS011;33105;47.964;7.982;2023-03-01T18:57:42;32.15;;;19.42;;
47365;SDS011;33105;47.964;7.982;2023-03-01T19:00:44;33.92;;;18.85;;
47365;SDS011;33105;47.964;7.982;2023-03-01T19:03:46;31.67;;;19.45;;
47365;SDS011;33105;47.964;7.982;2023-03-01T19:06:48;33.08;;;19.55;;
47365;SDS011;33105;47.964;7.982;2023-03-01T19:09:51;39.28;;;21.52;;
47365;SDS011;33105;47.964;7.982;2023-03-01T19:12:53;40.03;;;22.33;;
47365;SDS011;33105;47.964;7.982;2023-03-01T19:16:08;33.72;;;21.75;;
47365;SDS011;33105;47.964;7.982;2023-03-01T19:19:26;32.13;;;20.63;;
47365;SDS011;33105;47.964;7.982;2023-03-01T19:22:39;37.67;;;22.60;;
47365;SDS011;33105;47.964;7.982;2023-03-01T19:30:17;40.78;;;23.92;;
47365;SDS011;33105;47.964;7.982;2023-03-01T19:34:49;37.92;;;22.55;;
47365;SDS011;33105;47.964;7.982;2023-03-01T19:42:13;43.05;;;22.77;;
47365;SDS011;33105;47.964;7.982;2023-03-01T19:49:08;44.88;;;24.65;;
47365;SDS011;33105;47.964;7.982;2023-03-01T19:52:40;38.10;;;22.25;;
47365;SDS011;33105;47.964;7.982;2023-03-01T19:56:32;38.35;;;20.90;;
47365;SDS011;33105;47.964;7.982;2023-03-01T20:00:04;39.22;;;22.67;;
47365;SDS011;33105;47.964;7.982;2023-03-01T20:03:26;40.13;;;23.02;;
47365;SDS011;33105;47.964;7.982;2023-03-01T20:07:03;37.58;;;21.70;;
47365;SDS011;33105;47.964;7.982;2023-03-01T20:10:11;37.65;;;22.75;;
47365;SDS011;33105;47.964;7.982;2023-03-01T20:13:13;37.83;;;22.67;;
47365;SDS011;33105;47.964;7.982;2023-03-01T20:16:18;40.20;;;22.75;;
47365;SDS011;33105;47.964;7.982;2023-03-01T20:19:35;39.17;;;23.15;;
47365;SDS011;33105;47.964;7.982;2023-03-01T20:22:39;36.90;;;23.48;;
47365;SDS011;33105;47.964;7.982;2023-03-01T20:26:07;38.05;;;21.70;;
47365;SDS011;33105;47.964;7.982;2023-03-01T20:29:12;51.47;;;27.08;;
47365;SDS011;33105;47.964;7.982;2023-03-01T20:32:19;49.58;;;24.75;;
47365;SDS011;33105;47.964;7.982;2023-03-01T20:35:30;44.22;;;23.42;;
47365;SDS011;33105;47.964;7.982;2023-03-01T20:38:45;38.25;;;22.98;;